EDW22 LSZH-MDPP
Flight info
| Callsign | EDW22 |
|---|---|
| Flight time | N/A |
| Altitude | 34000 |
| Route | VEBIT T10 TORPA DCT REKLA DCT RLP DCT ROTSI DCT AMODO DCT COHPA UM729 RESMI UN491 EKRAS UN585 FEJAC DCT REGHI/M085F340 DCT ETIKI DCT 47N015W 46N020W 45N030W 40N040W 35N050W DCT SIFEN M596 WATRS/N0501F340 M596 POKEG POKEG3S |
| Aircraft | A359/H-SABDE2E3GHIJ2J3J4J5M1P2RWXYZ/LB1D1 |
Departure
| Time | N/A |
|---|---|
| Airport | Zürich Airport (LSZH) |
Arrival
| Time | 2026-05-05 23:09 |
|---|---|
| Airport | Gregorio Luperon International Airport (MDPP) |
| Time | Latitude | Longitude | Altitude | Speed | Heading |
|---|---|---|---|---|---|
| 2026-05-05 22:00 | 23.65857 | -65.29836 | 34074 ft | 467 kts | 235° |
| 2026-05-05 22:00 | 23.63958 | -65.32687 | 34073 ft | 467 kts | 235° |
| 2026-05-05 22:01 | 23.60153 | -65.38402 | 34073 ft | 467 kts | 234° |
| 2026-05-05 22:01 | 23.56321 | -65.44151 | 34072 ft | 467 kts | 235° |
| 2026-05-05 22:02 | 23.52524 | -65.49840 | 34071 ft | 467 kts | 235° |
| 2026-05-05 22:02 | 23.48690 | -65.55531 | 34071 ft | 466 kts | 234° |
| 2026-05-05 22:03 | 23.44749 | -65.61143 | 34069 ft | 466 kts | 234° |
| 2026-05-05 22:03 | 23.40807 | -65.66743 | 34072 ft | 466 kts | 233° |
| 2026-05-05 22:04 | 23.36865 | -65.72381 | 34065 ft | 466 kts | 233° |
| 2026-05-05 22:04 | 23.32944 | -65.77978 | 34068 ft | 467 kts | 233° |
| 2026-05-05 22:05 | 23.29014 | -65.83573 | 34066 ft | 467 kts | 233° |
| 2026-05-05 22:05 | 23.25075 | -65.89170 | 34062 ft | 465 kts | 233° |
| 2026-05-05 22:06 | 23.21138 | -65.94757 | 34060 ft | 466 kts | 233° |
| 2026-05-05 22:06 | 23.17199 | -66.00342 | 34060 ft | 466 kts | 233° |
| 2026-05-05 22:07 | 23.13263 | -66.05916 | 34059 ft | 467 kts | 234° |
| 2026-05-05 22:07 | 23.09313 | -66.11504 | 34058 ft | 467 kts | 233° |
| 2026-05-05 22:08 | 23.05350 | -66.17104 | 34057 ft | 467 kts | 233° |
| 2026-05-05 22:08 | 23.01392 | -66.22691 | 34058 ft | 467 kts | 234° |
| 2026-05-05 22:09 | 22.97442 | -66.28261 | 34059 ft | 467 kts | 234° |
| 2026-05-05 22:09 | 22.93475 | -66.33846 | 34063 ft | 467 kts | 234° |
| 2026-05-05 22:10 | 22.89518 | -66.39413 | 34066 ft | 467 kts | 233° |
| 2026-05-05 22:10 | 22.85541 | -66.44961 | 34063 ft | 467 kts | 233° |
| 2026-05-05 22:11 | 22.81550 | -66.50533 | 34063 ft | 467 kts | 234° |
| 2026-05-05 22:11 | 22.77557 | -66.56123 | 34063 ft | 468 kts | 234° |
| 2026-05-05 22:12 | 22.73606 | -66.61656 | 34061 ft | 468 kts | 234° |
| 2026-05-05 22:12 | 22.69607 | -66.67258 | 34061 ft | 468 kts | 234° |
| 2026-05-05 22:13 | 22.65640 | -66.72834 | 34057 ft | 469 kts | 234° |
| 2026-05-05 22:13 | 22.61651 | -66.78419 | 34057 ft | 470 kts | 233° |
| 2026-05-05 22:14 | 22.57653 | -66.84000 | 34057 ft | 470 kts | 234° |
| 2026-05-05 22:14 | 22.53671 | -66.89550 | 34056 ft | 470 kts | 234° |
| 2026-05-05 22:15 | 22.49668 | -66.95122 | 34054 ft | 469 kts | 234° |
| 2026-05-05 22:15 | 22.45649 | -67.00714 | 34055 ft | 470 kts | 234° |
| 2026-05-05 22:16 | 22.41660 | -67.06256 | 34055 ft | 470 kts | 234° |
| 2026-05-05 22:16 | 22.37648 | -67.11826 | 34052 ft | 469 kts | 234° |
| 2026-05-05 22:17 | 22.33634 | -67.17387 | 34056 ft | 470 kts | 234° |
| 2026-05-05 22:17 | 22.29632 | -67.22932 | 34055 ft | 469 kts | 234° |
| 2026-05-05 22:18 | 22.25612 | -67.28494 | 34054 ft | 469 kts | 234° |
| 2026-05-05 22:18 | 22.21605 | -67.34032 | 34053 ft | 470 kts | 234° |
| 2026-05-05 22:19 | 22.17597 | -67.39558 | 34050 ft | 469 kts | 234° |
| 2026-05-05 22:19 | 22.13592 | -67.45079 | 34055 ft | 468 kts | 234° |
| 2026-05-05 22:20 | 22.09589 | -67.50593 | 34058 ft | 468 kts | 234° |
| 2026-05-05 22:20 | 22.05560 | -67.56139 | 34052 ft | 469 kts | 234° |
| 2026-05-05 22:21 | 22.01545 | -67.61658 | 34054 ft | 469 kts | 234° |
| 2026-05-05 22:21 | 21.97529 | -67.67178 | 34053 ft | 469 kts | 234° |
| 2026-05-05 22:22 | 21.93516 | -67.72711 | 34055 ft | 470 kts | 234° |
| 2026-05-05 22:22 | 21.89474 | -67.78254 | 34054 ft | 471 kts | 234° |
| 2026-05-05 22:23 | 21.85422 | -67.83765 | 34051 ft | 472 kts | 233° |
| 2026-05-05 22:23 | 21.81357 | -67.89305 | 34052 ft | 472 kts | 234° |
| 2026-05-05 22:24 | 21.77292 | -67.94849 | 34050 ft | 471 kts | 234° |
| 2026-05-05 22:24 | 21.73235 | -68.00384 | 34051 ft | 472 kts | 234° |
| 2026-05-05 22:25 | 21.69177 | -68.05921 | 34049 ft | 472 kts | 234° |
| 2026-05-05 22:25 | 21.65108 | -68.11466 | 34048 ft | 472 kts | 234° |
| 2026-05-05 22:26 | 21.61048 | -68.16992 | 34045 ft | 472 kts | 234° |
| 2026-05-05 22:26 | 21.56987 | -68.22517 | 34045 ft | 474 kts | 234° |
| 2026-05-05 22:27 | 21.52885 | -68.28053 | 34042 ft | 474 kts | 233° |
| 2026-05-05 22:27 | 21.48722 | -68.33514 | 34043 ft | 473 kts | 233° |
| 2026-05-05 22:28 | 21.44538 | -68.38996 | 34041 ft | 473 kts | 233° |
| 2026-05-05 22:28 | 21.40389 | -68.44441 | 34040 ft | 473 kts | 233° |
| 2026-05-05 22:29 | 21.36229 | -68.49901 | 34040 ft | 472 kts | 233° |
| 2026-05-05 22:29 | 21.32073 | -68.55349 | 34038 ft | 472 kts | 233° |
| 2026-05-05 22:30 | 21.28052 | -68.60731 | 34039 ft | 451 kts | 234° |
| 2026-05-05 22:30 | 21.26131 | -68.63361 | 34048 ft | 439 kts | 234° |
| 2026-05-05 22:30 | 21.24228 | -68.65946 | 34034 ft | 448 kts | 234° |
| 2026-05-05 22:31 | 21.20329 | -68.71261 | 34032 ft | 461 kts | 234° |
| 2026-05-05 22:31 | 21.16321 | -68.76716 | 34031 ft | 471 kts | 234° |
| 2026-05-05 22:32 | 21.12263 | -68.82225 | 34032 ft | 472 kts | 234° |
| 2026-05-05 22:32 | 21.08204 | -68.87730 | 34034 ft | 472 kts | 234° |
| 2026-05-05 22:33 | 21.04116 | -68.93269 | 34032 ft | 473 kts | 234° |
| 2026-05-05 22:33 | 21.00023 | -68.98809 | 34034 ft | 474 kts | 234° |
| 2026-05-05 22:34 | 20.95966 | -69.04296 | 34028 ft | 474 kts | 234° |
| 2026-05-05 22:34 | 20.91848 | -69.09858 | 34027 ft | 474 kts | 234° |
| 2026-05-05 22:35 | 20.87777 | -69.15338 | 34026 ft | 474 kts | 234° |
| 2026-05-05 22:35 | 20.83649 | -69.20867 | 34027 ft | 474 kts | 234° |
| 2026-05-05 22:36 | 20.79549 | -69.26380 | 34022 ft | 474 kts | 234° |
| 2026-05-05 22:36 | 20.75437 | -69.31908 | 34024 ft | 475 kts | 234° |
| 2026-05-05 22:37 | 20.71328 | -69.37416 | 34020 ft | 475 kts | 234° |
| 2026-05-05 22:37 | 20.67233 | -69.42909 | 34017 ft | 475 kts | 234° |
| 2026-05-05 22:38 | 20.63118 | -69.48430 | 34015 ft | 476 kts | 234° |
| 2026-05-05 22:38 | 20.58981 | -69.53976 | 34010 ft | 476 kts | 234° |
| 2026-05-05 22:39 | 20.54883 | -69.59463 | 34011 ft | 476 kts | 234° |
| 2026-05-05 22:39 | 20.50669 | -69.64960 | 34008 ft | 478 kts | 232° |
| 2026-05-05 22:40 | 20.46335 | -69.70362 | 34007 ft | 479 kts | 232° |
| 2026-05-05 22:40 | 20.42005 | -69.75710 | 34009 ft | 479 kts | 231° |
| 2026-05-05 22:41 | 20.37605 | -69.81065 | 34002 ft | 479 kts | 231° |
| 2026-05-05 22:41 | 20.33224 | -69.86391 | 33998 ft | 479 kts | 231° |
| 2026-05-05 22:42 | 20.28823 | -69.91738 | 33995 ft | 479 kts | 231° |
| 2026-05-05 22:42 | 20.24434 | -69.97073 | 33994 ft | 480 kts | 231° |
| 2026-05-05 22:43 | 20.20059 | -70.02383 | 33585 ft | 473 kts | 232° |
| 2026-05-05 22:43 | 20.18112 | -70.05208 | 32735 ft | 469 kts | 243° |
| 2026-05-05 22:43 | 20.16872 | -70.08356 | 31967 ft | 465 kts | 256° |
| 2026-05-05 22:43 | 20.16091 | -70.11685 | 31194 ft | 464 kts | 258° |
| 2026-05-05 22:44 | 20.15356 | -70.14996 | 30270 ft | 467 kts | 258° |
| 2026-05-05 22:44 | 20.14607 | -70.18385 | 29266 ft | 471 kts | 259° |
| 2026-05-05 22:44 | 20.13859 | -70.21759 | 28249 ft | 475 kts | 259° |
| 2026-05-05 22:44 | 20.13107 | -70.25142 | 27436 ft | 473 kts | 258° |
| 2026-05-05 22:45 | 20.12347 | -70.28536 | 26922 ft | 465 kts | 259° |
| 2026-05-05 22:45 | 20.11604 | -70.31841 | 26324 ft | 460 kts | 258° |
| 2026-05-05 22:45 | 20.10858 | -70.35151 | 25678 ft | 457 kts | 258° |
| 2026-05-05 22:45 | 20.10125 | -70.38406 | 25042 ft | 453 kts | 258° |
| 2026-05-05 22:46 | 20.09403 | -70.41631 | 24410 ft | 449 kts | 258° |
| 2026-05-05 22:46 | 20.08684 | -70.44848 | 23774 ft | 445 kts | 258° |
| 2026-05-05 22:46 | 20.07973 | -70.48013 | 23179 ft | 441 kts | 258° |
| 2026-05-05 22:46 | 20.07266 | -70.51162 | 22551 ft | 438 kts | 258° |
| 2026-05-05 22:47 | 20.06568 | -70.54263 | 21920 ft | 435 kts | 258° |
| 2026-05-05 22:47 | 20.05862 | -70.57394 | 21296 ft | 432 kts | 258° |
| 2026-05-05 22:47 | 20.05165 | -70.60475 | 20809 ft | 424 kts | 258° |
| 2026-05-05 22:47 | 20.04492 | -70.63451 | 20596 ft | 411 kts | 258° |
| 2026-05-05 22:48 | 20.03835 | -70.66354 | 20357 ft | 399 kts | 257° |
| 2026-05-05 22:48 | 20.03200 | -70.69167 | 20137 ft | 388 kts | 257° |
| 2026-05-05 22:48 | 20.02573 | -70.71945 | 19930 ft | 377 kts | 257° |
| 2026-05-05 22:48 | 20.01974 | -70.74594 | 19730 ft | 366 kts | 257° |
| 2026-05-05 22:49 | 20.01310 | -70.77160 | 19509 ft | 358 kts | 248° |
| 2026-05-05 22:49 | 19.99896 | -70.79288 | 19334 ft | 352 kts | 223° |
| 2026-05-05 22:49 | 19.97757 | -70.80512 | 19177 ft | 349 kts | 196° |
| 2026-05-05 22:49 | 19.95347 | -70.80583 | 19031 ft | 348 kts | 169° |
| 2026-05-05 22:50 | 19.93177 | -70.79487 | 18867 ft | 346 kts | 141° |
| 2026-05-05 22:50 | 19.91754 | -70.77492 | 18733 ft | 341 kts | 114° |
| 2026-05-05 22:50 | 19.90900 | -70.75176 | 18589 ft | 331 kts | 118° |
| 2026-05-05 22:50 | 19.89543 | -70.73298 | 18406 ft | 317 kts | 145° |
| 2026-05-05 22:51 | 19.87688 | -70.72175 | 18276 ft | 302 kts | 160° |
| 2026-05-05 22:51 | 19.85755 | -70.71334 | 18115 ft | 294 kts | 161° |
| 2026-05-05 22:51 | 19.83889 | -70.70515 | 17965 ft | 287 kts | 160° |
| 2026-05-05 22:51 | 19.82069 | -70.69656 | 17785 ft | 282 kts | 159° |
| 2026-05-05 22:52 | 19.80308 | -70.68780 | 17524 ft | 279 kts | 158° |
| 2026-05-05 22:52 | 19.78557 | -70.67882 | 17257 ft | 277 kts | 157° |
| 2026-05-05 22:52 | 19.76832 | -70.66983 | 16997 ft | 275 kts | 157° |
| 2026-05-05 22:52 | 19.75127 | -70.66093 | 16739 ft | 273 kts | 157° |
| 2026-05-05 22:53 | 19.73447 | -70.65121 | 16448 ft | 275 kts | 142° |
| 2026-05-05 22:53 | 19.72348 | -70.63490 | 16190 ft | 276 kts | 106° |
| 2026-05-05 22:53 | 19.72299 | -70.61500 | 15991 ft | 271 kts | 70° |
| 2026-05-05 22:53 | 19.73281 | -70.59844 | 15726 ft | 264 kts | 41° |
| 2026-05-05 22:54 | 19.74582 | -70.58478 | 15352 ft | 268 kts | 45° |
| 2026-05-05 22:54 | 19.75635 | -70.56841 | 14990 ft | 272 kts | 71° |
| 2026-05-05 22:54 | 19.75888 | -70.54875 | 14815 ft | 265 kts | 92° |
| 2026-05-05 22:54 | 19.75531 | -70.52995 | 14502 ft | 263 kts | 120° |
| 2026-05-05 22:55 | 19.74378 | -70.51554 | 14258 ft | 254 kts | 150° |
| 2026-05-05 22:55 | 19.72755 | -70.50947 | 14025 ft | 244 kts | 181° |
| 2026-05-05 22:55 | 19.71129 | -70.51304 | 13754 ft | 238 kts | 212° |
| 2026-05-05 22:55 | 19.69961 | -70.52473 | 13484 ft | 233 kts | 239° |
| 2026-05-05 22:56 | 19.69214 | -70.54009 | 13168 ft | 234 kts | 245° |
| 2026-05-05 22:56 | 19.68570 | -70.55615 | 12526 ft | 243 kts | 247° |
| 2026-05-05 22:56 | 19.67928 | -70.57309 | 11796 ft | 254 kts | 248° |
| 2026-05-05 22:56 | 19.67277 | -70.59052 | 11150 ft | 260 kts | 248° |
| 2026-05-05 22:57 | 19.66621 | -70.60834 | 10622 ft | 260 kts | 248° |
| 2026-05-05 22:57 | 19.65975 | -70.62610 | 10130 ft | 259 kts | 248° |
| 2026-05-05 22:57 | 19.65336 | -70.64391 | 9741 ft | 259 kts | 248° |
| 2026-05-05 22:57 | 19.64698 | -70.66174 | 9524 ft | 258 kts | 248° |
| 2026-05-05 22:58 | 19.64068 | -70.67941 | 9283 ft | 256 kts | 249° |
| 2026-05-05 22:58 | 19.63763 | -70.69781 | 9025 ft | 256 kts | 275° |
| 2026-05-05 22:58 | 19.64122 | -70.71602 | 8831 ft | 254 kts | 285° |
| 2026-05-05 22:58 | 19.64640 | -70.73383 | 8572 ft | 252 kts | 287° |
| 2026-05-05 22:59 | 19.65373 | -70.75057 | 8302 ft | 250 kts | 310° |
| 2026-05-05 22:59 | 19.66746 | -70.76157 | 8073 ft | 246 kts | 338° |
| 2026-05-05 22:59 | 19.68365 | -70.76711 | 7856 ft | 244 kts | 346° |
| 2026-05-05 22:59 | 19.70020 | -70.77137 | 7610 ft | 243 kts | 347° |
| 2026-05-05 23:00 | 19.73237 | -70.76821 | 7129 ft | 237 kts | 38° |
| 2026-05-05 23:00 | 19.74324 | -70.75539 | 6891 ft | 233 kts | 58° |
| 2026-05-05 23:00 | 19.75150 | -70.74066 | 6664 ft | 232 kts | 62° |
| 2026-05-05 23:01 | 19.75911 | -70.72557 | 6429 ft | 231 kts | 69° |
| 2026-05-05 23:01 | 19.76253 | -70.70933 | 6169 ft | 228 kts | 86° |
| 2026-05-05 23:01 | 19.76346 | -70.69225 | 5693 ft | 239 kts | 89° |
| 2026-05-05 23:01 | 19.76235 | -70.67439 | 5028 ft | 256 kts | 103° |
| 2026-05-05 23:02 | 19.75716 | -70.65567 | 4364 ft | 270 kts | 107° |
| 2026-05-05 23:02 | 19.75289 | -70.63599 | 3702 ft | 283 kts | 99° |
| 2026-05-05 23:02 | 19.75073 | -70.61475 | 3017 ft | 294 kts | 87° |
| 2026-05-05 23:02 | 19.75591 | -70.59367 | 2350 ft | 304 kts | 63° |
| 2026-05-05 23:03 | 19.76947 | -70.57649 | 1759 ft | 313 kts | 39° |
| 2026-05-05 23:03 | 19.78929 | -70.56683 | 1429 ft | 313 kts | 13° |
| 2026-05-05 23:03 | 19.81010 | -70.56720 | 1334 ft | 285 kts | 346° |
| 2026-05-05 23:03 | 19.82669 | -70.57680 | 1341 ft | 263 kts | 316° |
| 2026-05-05 23:04 | 19.83632 | -70.59279 | 1355 ft | 254 kts | 291° |
| 2026-05-05 23:04 | 19.83978 | -70.61037 | 1320 ft | 243 kts | 263° |
| 2026-05-05 23:04 | 19.83615 | -70.62723 | 1356 ft | 227 kts | 250° |
| 2026-05-05 23:04 | 19.83093 | -70.64268 | 1354 ft | 215 kts | 245° |
| 2026-05-05 23:05 | 19.82376 | -70.65605 | 1388 ft | 199 kts | 232° |
| 2026-05-05 23:05 | 19.81542 | -70.66751 | 1391 ft | 196 kts | 223° |
| 2026-05-05 23:05 | 19.80390 | -70.67428 | 1390 ft | 188 kts | 190° |
| 2026-05-05 23:05 | 19.79104 | -70.67684 | 1380 ft | 186 kts | 177° |
| 2026-05-05 23:06 | 19.77821 | -70.67597 | 1388 ft | 184 kts | 169° |
| 2026-05-05 23:06 | 19.76581 | -70.67287 | 1372 ft | 180 kts | 149° |
| 2026-05-05 23:06 | 19.75543 | -70.66552 | 1381 ft | 179 kts | 139° |
| 2026-05-05 23:06 | 19.74614 | -70.65693 | 1374 ft | 171 kts | 131° |
| 2026-05-05 23:07 | 19.73859 | -70.64784 | 1358 ft | 156 kts | 126° |
| 2026-05-05 23:07 | 19.73474 | -70.63771 | 1345 ft | 150 kts | 87° |
| 2026-05-05 23:07 | 19.73710 | -70.62684 | 1357 ft | 155 kts | 64° |
| 2026-05-05 23:07 | 19.74417 | -70.61765 | 897 ft | 164 kts | 54° |
| 2026-05-05 23:08 | 19.74928 | -70.60741 | 597 ft | 153 kts | 77° |
| 2026-05-05 23:08 | 19.75123 | -70.59668 | 399 ft | 142 kts | 84° |
| 2026-05-05 23:08 | 19.75323 | -70.58629 | 173 ft | 145 kts | 73° |
| 2026-05-05 23:08 | 19.75614 | -70.57658 | 65 ft | 129 kts | 75° |
| 2026-05-05 23:09 | 19.75787 | -70.57022 | 59 ft | 62 kts | 72° |
| 2026-05-05 23:09 | 19.75885 | -70.56676 | 62 ft | 40 kts | 71° |
| 2026-05-05 23:09 | 19.75929 | -70.56531 | 63 ft | 16 kts | 72° |
| 2026-05-05 23:09 | 19.75939 | -70.56495 | 63 ft | 2 kts | 77° |
| 2026-05-05 23:10 | 19.75932 | -70.56460 | 63 ft | 5 kts | 127° |
| 2026-05-05 23:10 | 19.75910 | -70.56445 | 63 ft | 1 kts | 157° |
| 2026-05-05 23:10 | 19.75884 | -70.56433 | 64 ft | 6 kts | 155° |
| 2026-05-05 23:10 | 19.75845 | -70.56417 | 64 ft | 5 kts | 161° |
| 2026-05-05 23:11 | 19.75811 | -70.56406 | 65 ft | 4 kts | 163° |
| 2026-05-05 23:11 | 19.75783 | -70.56397 | 66 ft | 3 kts | 162° |
| 2026-05-05 23:11 | 19.75762 | -70.56390 | 66 ft | 2 kts | 162° |
| 2026-05-05 23:11 | 19.75733 | -70.56388 | 67 ft | 6 kts | 194° |
| 2026-05-05 23:12 | 19.75693 | -70.56400 | 67 ft | 4 kts | 193° |
| 2026-05-05 23:12 | 19.75674 | -70.56406 | 68 ft | 1 kts | 200° |
| 2026-05-05 23:12 | 19.75662 | -70.56413 | 68 ft | 2 kts | 208° |
| 2026-05-05 23:12 | 19.75650 | -70.56419 | 69 ft | 2 kts | 208° |
| 2026-05-05 23:13 | 19.75640 | -70.56425 | 69 ft | 0 kts | 208° |
| 2026-05-05 23:13 | 19.75631 | -70.56431 | 69 ft | 1 kts | 209° |
| 2026-05-05 23:13 | 19.75630 | -70.56432 | 69 ft | 0 kts | 209° |